Terminal Aerodrome Forecast
Issued by NWS

Home | Current Version | Previous Version | Text Only | Print | Product List | Glossary On
Versions: 1 2 3 4 5 6 7 8 9 10 11 12 13 14 15 16 17 18 19 20 21 22
000
FTUS41 KGYX 311010 AAB
TAFPSM
TAF AMD
KPSM 311010Z 3110/0106 29013G25KT 1 1/2SM -SN OVC030
     FM311200 29012G22KT 5SM -SN OVC040
     FM311700 32018G30KT P6SM SCT050
     FM312200 32010KT P6SM SKC=

USA.gov is the U.S. government's official web portal to all federal, state and local government web resources and services.